createdAt,value
2017-11-18T00:01:54.555Z,3.80
2017-11-18T00:04:22.104Z,3.80
2017-11-18T00:06:49.651Z,3.90
2017-11-18T00:09:17.228Z,3.80
2017-11-18T00:11:44.774Z,3.60
2017-11-18T00:14:13.110Z,3.60
2017-11-18T00:16:40.661Z,3.60
2017-11-18T00:19:08.190Z,3.60
2017-11-18T00:21:35.753Z,3.70
2017-11-18T00:24:03.307Z,3.90
2017-11-18T00:26:30.855Z,3.80
2017-11-18T00:28:58.393Z,3.80
2017-11-18T00:31:26.751Z,3.80
2017-11-18T00:33:54.283Z,3.70
2017-11-18T00:36:21.857Z,3.90
2017-11-18T00:38:49.442Z,3.90
2017-11-18T00:41:17.002Z,3.80
2017-11-18T00:43:44.548Z,3.80
2017-11-18T00:46:12.109Z,3.90
2017-11-18T00:48:39.653Z,3.80
2017-11-18T00:51:07.238Z,3.90
2017-11-18T00:53:34.783Z,3.70
2017-11-18T00:56:02.334Z,3.60
2017-11-18T00:58:29.891Z,3.60
2017-11-18T01:00:57.446Z,3.60
2017-11-18T01:03:25.001Z,3.70
2017-11-18T01:05:52.551Z,3.70
2017-11-18T01:08:20.102Z,3.70
2017-11-18T01:10:47.650Z,3.70
2017-11-18T01:13:15.221Z,3.70
2017-11-18T01:15:42.750Z,3.70
2017-11-18T01:18:11.064Z,3.80
2017-11-18T01:20:38.671Z,3.80
2017-11-18T01:23:06.213Z,3.80
2017-11-18T01:25:33.769Z,3.80
2017-11-18T01:28:01.309Z,3.80
2017-11-18T01:30:28.864Z,3.80
2017-11-18T01:32:56.393Z,3.80
2017-11-18T01:35:24.714Z,3.80
2017-11-18T01:37:52.245Z,3.80
2017-11-18T01:40:19.775Z,3.80
2017-11-18T01:42:47.322Z,3.70
2017-11-18T01:45:14.871Z,3.70
2017-11-18T01:47:42.431Z,3.70
2017-11-18T01:50:09.968Z,3.70
2017-11-18T01:52:37.523Z,3.70
2017-11-18T01:55:05.078Z,3.70
2017-11-18T01:57:32.638Z,3.70
2017-11-18T02:00:00.211Z,3.60
2017-11-18T02:02:39.539Z,3.70
2017-11-18T02:05:07.099Z,3.70
2017-11-18T02:07:34.633Z,3.70
2017-11-18T02:10:02.220Z,3.60
2017-11-18T02:12:30.200Z,3.60
2017-11-18T02:14:57.762Z,3.60
2017-11-18T02:17:25.327Z,3.60
2017-11-18T02:19:52.873Z,3.70
2017-11-18T02:22:20.419Z,3.60
2017-11-18T02:24:47.958Z,3.60
2017-11-18T02:27:16.318Z,3.70
2017-11-18T02:29:44.629Z,3.70
2017-11-18T02:32:12.195Z,3.70
2017-11-18T02:34:39.722Z,3.70
2017-11-18T02:37:08.038Z,3.70
2017-11-18T02:39:35.574Z,3.60
2017-11-18T02:42:03.132Z,3.70
2017-11-18T02:44:30.670Z,3.70
2017-11-18T02:46:58.999Z,3.70
2017-11-18T02:49:26.538Z,3.70
2017-11-18T02:51:54.103Z,3.70
2017-11-18T02:54:21.652Z,3.70
2017-11-18T02:56:49.209Z,3.60
2017-11-18T02:59:17.531Z,3.70
2017-11-18T03:01:45.069Z,3.60
2017-11-18T03:04:12.655Z,3.70
2017-11-18T03:06:40.206Z,3.70
2017-11-18T03:09:07.774Z,3.80
2017-11-18T03:11:35.303Z,3.80
2017-11-18T03:14:02.850Z,3.80
2017-11-18T03:16:30.410Z,3.80
2017-11-18T03:18:58.007Z,3.70
2017-11-18T03:21:25.568Z,3.80
2017-11-18T03:23:53.105Z,3.80
2017-11-18T03:26:20.671Z,3.70
2017-11-18T03:28:48.202Z,3.80
2017-11-18T03:31:15.735Z,3.80
2017-11-18T03:33:43.286Z,3.80
2017-11-18T03:36:10.818Z,3.90
2017-11-18T03:38:38.391Z,3.90
2017-11-18T03:41:05.930Z,3.90
2017-11-18T03:43:33.491Z,4.00
2017-11-18T03:46:01.026Z,3.90
2017-11-18T03:48:28.582Z,3.90
2017-11-18T03:50:56.116Z,3.90
2017-11-18T03:53:23.682Z,4.00
2017-11-18T03:55:51.996Z,4.00
2017-11-18T03:58:19.558Z,4.00
2017-11-18T04:00:52.612Z,4.20
2017-11-18T04:03:20.930Z,4.10
2017-11-18T04:05:48.483Z,4.10
2017-11-18T04:08:16.018Z,4.10
2017-11-18T04:10:44.354Z,4.10
2017-11-18T04:13:11.909Z,4.10
2017-11-18T04:15:39.477Z,4.10
2017-11-18T04:18:07.053Z,4.10
2017-11-18T04:20:34.598Z,4.00
2017-11-18T04:23:02.186Z,4.00
2017-11-18T04:25:30.503Z,4.00
2017-11-18T04:27:58.071Z,4.00
2017-11-18T04:30:25.632Z,4.00
2017-11-18T04:32:53.208Z,4.00
2017-11-18T04:35:20.773Z,4.10
2017-11-18T04:37:48.314Z,4.10
2017-11-18T04:40:15.845Z,4.10
2017-11-18T04:42:43.421Z,4.00
2017-11-18T04:45:10.959Z,4.10
2017-11-18T04:47:38.516Z,4.10
2017-11-18T04:50:06.047Z,4.00
2017-11-18T04:52:34.365Z,4.00
2017-11-18T04:55:01.945Z,4.00
2017-11-18T04:57:29.500Z,3.90
2017-11-18T04:59:57.030Z,3.90
2017-11-18T05:02:24.592Z,3.80
2017-11-18T05:04:52.175Z,3.80
2017-11-18T05:07:19.712Z,3.80
2017-11-18T05:09:47.279Z,3.80
2017-11-18T05:12:14.807Z,3.80
2017-11-18T05:14:43.146Z,3.70
2017-11-18T05:17:10.672Z,3.70
2017-11-18T05:19:38.233Z,3.70
2017-11-18T05:22:05.775Z,3.70
2017-11-18T05:24:33.336Z,3.80
2017-11-18T05:27:00.918Z,3.70
2017-11-18T05:29:28.467Z,3.80
2017-11-18T05:31:56.022Z,3.90
2017-11-18T05:34:23.580Z,3.90
2017-11-18T05:36:51.140Z,3.90
2017-11-18T05:39:18.682Z,3.80
2017-11-18T05:41:46.997Z,3.80
2017-11-18T05:44:14.542Z,3.80
2017-11-18T05:46:42.098Z,3.80
2017-11-18T05:49:09.623Z,3.90
2017-11-18T05:51:37.943Z,3.70
2017-11-18T05:54:05.487Z,3.70
2017-11-18T05:56:33.043Z,3.70
2017-11-18T05:59:00.588Z,3.80
2017-11-18T06:01:28.929Z,3.80
2017-11-18T06:03:56.478Z,3.80
2017-11-18T06:06:26.028Z,3.80
2017-11-18T06:08:54.353Z,3.90
2017-11-18T06:11:21.925Z,3.80
2017-11-18T06:13:49.458Z,3.80
2017-11-18T06:16:17.025Z,3.70
2017-11-18T06:18:44.609Z,3.70
2017-11-18T06:21:12.149Z,3.70
2017-11-18T06:23:39.704Z,3.60
2017-11-18T06:26:07.890Z,3.80
2017-11-18T06:28:35.482Z,3.80
2017-11-18T06:31:03.021Z,3.70
2017-11-18T06:33:30.562Z,3.80
2017-11-18T06:35:58.123Z,3.70
2017-11-18T06:38:25.669Z,3.70
2017-11-18T06:40:53.222Z,3.70
2017-11-18T06:43:20.770Z,3.70
2017-11-18T06:45:49.066Z,3.90
2017-11-18T06:48:16.614Z,3.90
2017-11-18T06:50:44.143Z,3.80
2017-11-18T06:53:11.711Z,3.70
2017-11-18T06:55:40.019Z,3.70
2017-11-18T06:58:07.573Z,3.70
2017-11-18T07:00:35.119Z,3.70
2017-11-18T07:03:03.474Z,3.80
2017-11-18T07:05:31.035Z,3.80
2017-11-18T07:07:58.598Z,3.80
2017-11-18T07:10:26.925Z,3.90
2017-11-18T07:12:54.479Z,3.80
2017-11-18T07:15:22.011Z,3.80
2017-11-18T07:17:50.364Z,3.90
2017-11-18T07:20:18.689Z,3.90
2017-11-18T07:22:46.226Z,3.90
2017-11-18T07:25:15.394Z,3.80
2017-11-18T07:27:42.932Z,3.80
2017-11-18T07:30:10.486Z,3.90
2017-11-18T07:32:38.022Z,3.90
2017-11-18T07:35:05.572Z,4.00
2017-11-18T07:37:33.859Z,4.20
2017-11-18T07:40:01.543Z,4.20
2017-11-18T07:42:29.093Z,4.30
2017-11-18T07:44:56.626Z,4.40
2017-11-18T07:47:24.949Z,4.30
2017-11-18T07:49:52.528Z,4.30
2017-11-18T07:52:20.062Z,4.30
2017-11-18T07:54:47.626Z,4.20
2017-11-18T07:57:15.190Z,4.20
2017-11-18T07:59:42.730Z,4.20
2017-11-18T08:02:10.294Z,4.40
2017-11-18T08:04:37.825Z,4.60
2017-11-18T08:07:06.133Z,4.40
2017-11-18T08:09:33.655Z,4.40
2017-11-18T08:12:02.740Z,4.40
2017-11-18T08:14:31.070Z,4.80
2017-11-18T08:16:58.598Z,4.70
2017-11-18T08:19:26.151Z,4.90
2017-11-18T08:21:54.458Z,4.70
2017-11-18T08:24:22.024Z,4.70
2017-11-18T08:26:49.580Z,4.80
2017-11-18T08:29:17.133Z,5.00
2017-11-18T08:31:44.671Z,5.10
2017-11-18T08:34:13.002Z,5.30
2017-11-18T08:36:41.507Z,5.20
2017-11-18T08:39:09.825Z,5.00
2017-11-18T08:41:37.404Z,5.00
2017-11-18T08:44:04.939Z,5.00
2017-11-18T08:46:32.499Z,5.00
2017-11-18T08:49:00.061Z,5.10
2017-11-18T08:51:27.614Z,5.30
2017-11-18T08:53:55.179Z,5.40
2017-11-18T08:56:22.760Z,5.60
2017-11-18T08:58:50.306Z,6.70
2017-11-18T09:01:17.843Z,8.40
2017-11-18T09:03:46.172Z,9.30
2017-11-18T09:06:13.728Z,9.20
2017-11-18T09:08:41.283Z,9.80
2017-11-18T09:11:08.826Z,10.20
2017-11-18T09:13:36.380Z,9.30
2017-11-18T09:16:03.933Z,10.00
2017-11-18T09:18:31.491Z,10.00
2017-11-18T09:20:59.059Z,10.40
2017-11-18T09:23:26.631Z,9.40
2017-11-18T09:25:54.178Z,9.00
2017-11-18T09:28:21.853Z,9.30
2017-11-18T09:30:49.462Z,8.50
2017-11-18T09:33:17.086Z,8.80
2017-11-18T09:35:45.603Z,8.70
2017-11-18T09:38:13.158Z,9.00
2017-11-18T09:40:40.719Z,8.90
2017-11-18T09:43:08.318Z,9.00
2017-11-18T09:45:35.851Z,9.50
2017-11-18T09:48:04.190Z,10.70
2017-11-18T09:50:31.728Z,10.60
2017-11-18T09:52:59.310Z,10.30
2017-11-18T09:55:26.867Z,10.80
2017-11-18T09:57:54.426Z,11.20
2017-11-18T10:00:21.982Z,11.50
2017-11-18T10:02:49.547Z,12.30
2017-11-18T10:05:17.098Z,13.40
2017-11-18T10:07:44.671Z,14.30
2017-11-18T10:10:12.213Z,14.20
2017-11-18T10:12:39.804Z,14.20
2017-11-18T10:15:07.347Z,14.60
2017-11-18T10:17:34.984Z,14.50
2017-11-18T10:20:02.545Z,14.30
2017-11-18T10:22:30.107Z,14.60
2017-11-18T10:24:57.677Z,14.40
2017-11-18T10:27:25.227Z,13.40
2017-11-18T10:29:52.782Z,13.00
2017-11-18T10:32:20.323Z,12.10
2017-11-18T10:34:47.902Z,10.60
2017-11-18T10:37:15.476Z,9.30
2017-11-18T10:39:43.021Z,8.50
2017-11-18T10:42:10.555Z,7.80
2017-11-18T10:44:38.869Z,6.80
2017-11-18T10:47:06.403Z,6.80
2017-11-18T10:49:34.723Z,6.70
2017-11-18T10:52:02.289Z,6.70
2017-11-18T10:54:29.826Z,6.50
2017-11-18T10:56:57.398Z,6.50
2017-11-18T10:59:24.930Z,6.40
2017-11-18T11:01:52.483Z,6.40
2017-11-18T11:04:20.819Z,6.30
2017-11-18T11:06:48.400Z,6.30
2017-11-18T11:09:16.698Z,6.30
2017-11-18T11:11:45.014Z,6.30
2017-11-18T11:14:12.547Z,6.30
2017-11-18T11:16:40.102Z,6.20
2017-11-18T11:19:07.654Z,6.20
2017-11-18T11:21:35.207Z,5.90
2017-11-18T11:24:02.737Z,5.80
2017-11-18T11:26:30.281Z,7.20
2017-11-18T11:28:57.830Z,10.40
2017-11-18T11:31:26.146Z,13.70
2017-11-18T11:33:53.717Z,13.70
2017-11-18T11:36:21.259Z,13.40
2017-11-18T11:38:48.826Z,15.40
2017-11-18T11:41:16.385Z,14.30
2017-11-18T11:43:43.932Z,13.80
2017-11-18T11:46:11.501Z,11.40
2017-11-18T11:48:39.050Z,10.00
2017-11-18T11:51:06.619Z,8.60
2017-11-18T11:53:34.173Z,8.40
2017-11-18T11:56:01.718Z,8.10
2017-11-18T11:58:30.036Z,8.30
2017-11-18T12:00:57.591Z,8.30
2017-11-18T12:03:25.147Z,8.20
2017-11-18T12:05:52.689Z,9.20
2017-11-18T12:08:20.251Z,8.30
2017-11-18T12:10:47.805Z,7.80
2017-11-18T12:13:15.351Z,7.60
2017-11-18T12:15:43.661Z,6.90
2017-11-18T12:18:11.236Z,6.90
2017-11-18T12:20:38.780Z,7.60
2017-11-18T12:23:06.322Z,7.60
2017-11-18T12:25:33.858Z,7.30
2017-11-18T12:28:02.194Z,6.70
2017-11-18T12:30:29.735Z,6.70
2017-11-18T12:32:57.282Z,6.90
2017-11-18T12:35:24.851Z,6.80
2017-11-18T12:37:52.412Z,7.10
2017-11-18T12:40:19.968Z,7.80
2017-11-18T12:42:47.530Z,7.60
2017-11-18T12:45:15.080Z,7.10
2017-11-18T12:47:42.630Z,7.00
2017-11-18T12:50:10.169Z,6.80
2017-11-18T12:52:38.491Z,6.70
2017-11-18T12:55:06.039Z,6.70
2017-11-18T12:57:33.578Z,6.70
2017-11-18T13:00:01.906Z,6.70
2017-11-18T13:02:29.453Z,6.70
2017-11-18T13:04:57.014Z,6.80
2017-11-18T13:07:24.555Z,6.80
2017-11-18T13:09:52.112Z,6.70
2017-11-18T13:12:19.636Z,6.70
2017-11-18T13:14:48.017Z,6.90
2017-11-18T13:17:15.551Z,6.90
2017-11-18T13:19:43.099Z,6.80
2017-11-18T13:22:10.630Z,6.80
2017-11-18T13:24:38.187Z,6.70
2017-11-18T13:27:05.721Z,6.70
2017-11-18T13:29:34.042Z,6.50
2017-11-18T13:32:01.581Z,6.50
2017-11-18T13:34:29.131Z,6.40
2017-11-18T13:36:56.687Z,6.20
2017-11-18T13:39:24.226Z,6.00
2017-11-18T13:41:51.760Z,6.00
2017-11-18T13:44:19.343Z,6.00
2017-11-18T13:46:46.895Z,6.00
2017-11-18T13:49:14.459Z,6.20
2017-11-18T13:51:42.019Z,6.50
2017-11-18T13:54:09.556Z,6.50
2017-11-18T13:56:37.118Z,6.40
2017-11-18T13:59:04.667Z,6.40
2017-11-18T14:01:32.227Z,6.30
2017-11-18T14:03:59.771Z,6.20
2017-11-18T14:06:28.095Z,5.70
2017-11-18T14:08:55.622Z,5.70
2017-11-18T14:11:23.175Z,5.70
2017-11-18T14:13:51.465Z,5.60
2017-11-18T14:16:19.044Z,5.60
2017-11-18T14:18:46.649Z,5.70
2017-11-18T14:21:14.178Z,5.70
2017-11-18T14:23:41.731Z,5.70
2017-11-18T14:26:09.269Z,5.70
2017-11-18T14:28:36.801Z,5.60
2017-11-18T14:31:05.131Z,5.70
2017-11-18T14:33:32.663Z,5.70
2017-11-18T14:36:00.222Z,5.70
2017-11-18T14:38:27.842Z,5.70
2017-11-18T14:40:55.459Z,5.60
2017-11-18T14:43:23.002Z,5.60
2017-11-18T14:45:50.586Z,5.60
2017-11-18T14:48:18.160Z,5.50
2017-11-18T14:50:45.752Z,5.50
2017-11-18T14:53:13.302Z,5.50
2017-11-18T14:55:40.858Z,5.40
2017-11-18T14:58:08.407Z,5.40
2017-11-18T15:00:36.007Z,5.40
2017-11-18T15:03:04.327Z,5.40
2017-11-18T15:05:31.883Z,5.40
2017-11-18T15:07:59.459Z,5.20
2017-11-18T15:10:27.030Z,5.10
2017-11-18T15:12:54.563Z,5.00
2017-11-18T15:15:24.547Z,5.00
2017-11-18T15:17:57.902Z,4.90
2017-11-18T15:20:31.183Z,4.80
2017-11-18T15:23:14.523Z,4.70
2017-11-18T15:25:49.823Z,4.50
2017-11-18T15:28:35.198Z,4.40
2017-11-18T15:31:08.365Z,4.30
2017-11-18T15:47:10.906Z,3.90
2017-11-18T15:49:44.935Z,3.90
2017-11-18T15:52:19.090Z,3.80
2017-11-18T15:54:50.102Z,3.90
2017-11-18T15:57:17.670Z,3.80
2017-11-18T15:59:45.236Z,3.90
2017-11-18T16:02:19.493Z,3.90
2017-11-18T16:04:49.874Z,3.90
2017-11-18T16:07:20.196Z,3.90
2017-11-18T16:09:47.792Z,3.90
2017-11-18T16:12:15.341Z,3.90
2017-11-18T16:14:42.896Z,3.90
2017-11-18T16:17:10.467Z,3.80
2017-11-18T16:19:38.028Z,3.70
2017-11-18T16:22:05.562Z,3.70
2017-11-18T16:24:33.131Z,3.60
2017-11-18T16:27:00.728Z,3.50
2017-11-18T16:29:28.271Z,3.40
2017-11-18T16:31:55.832Z,3.30
2017-11-18T16:34:23.410Z,3.20
2017-11-18T16:36:51.031Z,3.20
2017-11-18T16:39:18.579Z,3.20
2017-11-18T16:41:46.139Z,3.20
2017-11-18T16:44:13.679Z,3.20
2017-11-18T16:46:41.268Z,3.30
2017-11-18T16:49:08.821Z,3.30
2017-11-18T16:51:36.388Z,3.30
2017-11-18T16:54:03.920Z,3.30
2017-11-18T16:56:32.226Z,3.40
2017-11-18T16:58:59.799Z,3.40
2017-11-18T17:01:27.355Z,3.40
2017-11-18T17:03:54.914Z,3.40
2017-11-18T17:06:22.445Z,3.40
2017-11-18T17:08:50.057Z,3.40
2017-11-18T17:11:17.633Z,3.40
2017-11-18T17:13:45.195Z,3.40
2017-11-18T17:16:13.501Z,3.40
2017-11-18T17:18:41.063Z,3.40
2017-11-18T17:21:08.602Z,3.30
2017-11-18T17:23:36.166Z,3.30
2017-11-18T17:26:03.712Z,3.40
2017-11-18T17:28:31.270Z,3.40
2017-11-18T17:30:58.857Z,3.30
2017-11-18T17:33:27.256Z,3.30
2017-11-18T17:35:54.802Z,3.40
2017-11-18T17:38:22.359Z,3.40
2017-11-18T17:40:49.926Z,3.40
2017-11-18T17:43:18.236Z,3.40
2017-11-18T17:45:45.840Z,3.40
2017-11-18T17:48:13.395Z,3.30
2017-11-18T17:50:40.962Z,3.30
2017-11-18T17:53:08.534Z,3.40
2017-11-18T17:55:36.081Z,3.40
2017-11-18T17:58:03.621Z,3.50
2017-11-18T18:00:33.359Z,3.50
2017-11-18T18:03:00.926Z,3.60
2017-11-18T18:05:28.475Z,3.50
2017-11-18T18:07:56.611Z,3.50
2017-11-18T18:10:24.160Z,3.50
2017-11-18T18:12:51.716Z,3.60
2017-11-18T18:15:19.267Z,3.60
2017-11-18T18:17:46.802Z,3.60
2017-11-18T18:20:14.366Z,3.60
2017-11-18T18:22:41.913Z,3.60
2017-11-18T18:25:09.484Z,3.60
2017-11-18T18:27:37.231Z,3.60
2017-11-18T18:30:04.870Z,3.60
2017-11-18T18:32:33.209Z,3.60
2017-11-18T18:35:00.749Z,3.60
2017-11-18T18:37:28.327Z,3.60
2017-11-18T18:39:55.894Z,3.70
2017-11-18T18:42:23.521Z,3.70
2017-11-18T18:44:51.103Z,3.70
2017-11-18T18:47:18.690Z,3.70
2017-11-18T18:49:46.286Z,3.70
2017-11-18T18:52:14.630Z,3.80
2017-11-18T18:54:42.209Z,3.80
2017-11-18T18:57:10.567Z,3.80
2017-11-18T18:59:38.130Z,3.80
2017-11-18T19:02:05.711Z,3.80
2017-11-18T19:04:33.315Z,3.80
2017-11-18T19:07:00.987Z,3.80
2017-11-18T19:09:29.441Z,3.80
2017-11-18T19:11:57.015Z,3.80
2017-11-18T19:14:24.581Z,3.80
2017-11-18T19:16:52.173Z,3.90
2017-11-18T19:19:19.759Z,3.80
2017-11-18T19:21:48.075Z,3.90
2017-11-18T19:24:15.831Z,3.90
2017-11-18T19:26:44.793Z,3.90
2017-11-18T19:29:15.215Z,3.90
2017-11-18T19:31:44.051Z,3.90
2017-11-18T19:34:11.631Z,3.90
2017-11-18T19:36:39.201Z,3.90
2017-11-18T19:39:06.815Z,3.90
2017-11-18T19:41:34.398Z,3.90
2017-11-18T19:44:02.001Z,3.90
2017-11-18T19:46:30.349Z,3.90
2017-11-18T19:48:58.152Z,3.90
2017-11-18T19:51:27.090Z,3.80
2017-11-18T19:53:55.440Z,3.80
2017-11-18T19:56:23.026Z,3.70
2017-11-18T19:58:50.607Z,3.80
2017-11-18T20:01:18.967Z,3.80
2017-11-18T20:03:47.280Z,3.80
2017-11-18T20:06:14.856Z,3.80
2017-11-18T20:08:43.260Z,3.70
2017-11-18T20:11:10.838Z,3.70
2017-11-18T20:13:38.438Z,3.70
2017-11-18T20:16:06.022Z,3.70
2017-11-18T20:18:34.403Z,3.60
2017-11-18T20:21:02.785Z,3.60
2017-11-18T20:23:30.415Z,3.60
2017-11-18T20:25:58.057Z,3.60
2017-11-18T20:28:25.639Z,3.60
2017-11-18T20:30:53.195Z,3.50
2017-11-18T20:33:20.738Z,3.60
2017-11-18T20:35:48.286Z,3.50
2017-11-18T20:38:15.858Z,3.50
2017-11-18T20:40:43.406Z,3.50
2017-11-18T20:43:10.994Z,3.40
2017-11-18T20:45:38.595Z,3.40
2017-11-18T20:48:06.961Z,3.40
2017-11-18T20:50:35.287Z,3.30
2017-11-18T20:53:02.880Z,3.30
2017-11-18T20:55:32.002Z,3.30
2017-11-18T20:58:00.366Z,3.40
2017-11-18T21:00:27.959Z,3.40
2017-11-18T21:02:55.486Z,3.30
2017-11-18T21:05:23.823Z,3.30
2017-11-18T21:07:51.355Z,3.30
2017-11-18T21:10:18.958Z,3.30
2017-11-18T21:12:46.498Z,3.30
2017-11-18T21:15:14.122Z,3.30
2017-11-18T21:17:42.433Z,3.40
2017-11-18T21:20:10.004Z,3.40
2017-11-18T21:22:37.624Z,3.40
2017-11-18T21:25:06.032Z,3.40
2017-11-18T21:27:33.591Z,3.30
2017-11-18T21:30:01.158Z,3.30
2017-11-18T21:32:28.755Z,3.30
2017-11-18T21:34:56.362Z,3.40
2017-11-18T21:37:23.948Z,3.40
2017-11-18T21:39:51.756Z,3.40
2017-11-18T21:42:20.109Z,3.40
2017-11-18T21:44:47.670Z,3.40
2017-11-18T21:47:15.300Z,3.40
2017-11-18T21:49:42.836Z,3.40
2017-11-18T21:52:10.436Z,3.40
2017-11-18T21:54:38.023Z,3.30
2017-11-18T21:57:05.589Z,3.30
2017-11-18T21:59:33.964Z,3.30
2017-11-18T22:02:01.521Z,3.30
2017-11-18T22:04:29.136Z,3.20
2017-11-18T22:06:56.708Z,3.20
2017-11-18T22:09:24.377Z,3.20
2017-11-18T22:11:51.931Z,3.20
2017-11-18T22:14:19.472Z,3.30
2017-11-18T22:16:47.147Z,3.30
2017-11-18T22:19:14.705Z,3.30
2017-11-18T22:21:42.263Z,3.30
2017-11-18T22:24:09.812Z,3.30
2017-11-18T22:26:37.410Z,3.30
2017-11-18T22:29:04.933Z,3.30
2017-11-18T22:31:32.482Z,3.30
2017-11-18T22:34:00.015Z,3.30
2017-11-18T22:36:27.561Z,3.30
2017-11-18T22:38:55.094Z,3.30
2017-11-18T22:41:22.642Z,3.30
2017-11-18T22:43:50.205Z,3.30
2017-11-18T22:46:17.754Z,3.30
2017-11-18T22:48:45.286Z,3.30
2017-11-18T22:51:13.705Z,3.30
2017-11-18T22:53:41.242Z,3.20
2017-11-18T22:56:08.782Z,3.20
2017-11-18T22:58:37.150Z,3.30
2017-11-18T23:01:05.451Z,3.30
2017-11-18T23:03:33.005Z,3.30
2017-11-18T23:06:00.522Z,3.30
2017-11-18T23:08:28.051Z,3.30
2017-11-18T23:10:56.413Z,3.20
2017-11-18T23:13:23.946Z,3.10
2017-11-18T23:15:51.488Z,3.10
2017-11-18T23:18:19.023Z,3.10
2017-11-18T23:20:46.587Z,3.10
2017-11-18T23:23:14.114Z,3.00
2017-11-18T23:25:42.414Z,3.00
2017-11-18T23:28:09.954Z,3.00
2017-11-18T23:30:38.271Z,3.00
2017-11-18T23:33:06.933Z,3.00
2017-11-18T23:35:34.503Z,3.00
2017-11-18T23:38:02.073Z,3.00
2017-11-18T23:40:29.606Z,2.90
2017-11-18T23:42:57.149Z,3.00
2017-11-18T23:45:25.431Z,3.00
2017-11-18T23:47:53.756Z,2.90
2017-11-18T23:50:21.283Z,2.90
2017-11-18T23:52:48.839Z,2.90
2017-11-18T23:55:16.381Z,2.80
2017-11-18T23:57:44.703Z,2.80
